createdAt,value
2022-10-10T00:01:16.853Z,1.77
2022-10-10T00:03:45.126Z,2.03
2022-10-10T00:06:14.125Z,1.70
2022-10-10T00:08:42.721Z,1.70
2022-10-10T00:11:11.875Z,1.48
2022-10-10T00:13:40.531Z,1.55
2022-10-10T00:16:08.722Z,1.50
2022-10-10T00:18:38.776Z,1.50
2022-10-10T00:21:07.484Z,1.50
2022-10-10T00:23:35.851Z,1.40
2022-10-10T00:26:08.781Z,1.65
2022-10-10T00:28:38.515Z,1.50
2022-10-10T00:31:07.484Z,1.58
2022-10-10T00:33:36.969Z,2.22
2022-10-10T00:36:05.364Z,1.65
2022-10-10T00:38:33.438Z,1.50
2022-10-10T00:41:01.915Z,1.40
2022-10-10T00:43:31.929Z,1.48
2022-10-10T00:46:00.243Z,1.85
2022-10-10T00:48:33.419Z,1.70
2022-10-10T00:51:06.456Z,1.77
2022-10-10T00:53:37.546Z,1.90
2022-10-10T00:56:06.534Z,1.67
2022-10-10T00:58:36.975Z,1.73
2022-10-10T01:01:05.445Z,2.20
2022-10-10T01:03:33.525Z,1.55
2022-10-10T01:06:03.137Z,1.50
2022-10-10T01:08:31.272Z,1.75
2022-10-10T01:11:12.985Z,1.50
2022-10-10T01:13:49.759Z,1.33
2022-10-10T01:16:24.823Z,1.70
2022-10-10T01:19:00.943Z,1.52
2022-10-10T01:21:37.478Z,1.40
2022-10-10T01:24:46.641Z,1.52
2022-10-10T01:27:31.158Z,1.60
2022-10-10T01:30:06.088Z,2.10
2022-10-10T01:32:39.524Z,1.60
2022-10-10T01:35:26.436Z,1.48
2022-10-10T01:38:01.578Z,1.50
2022-10-10T01:40:34.628Z,1.60
2022-10-10T01:43:05.502Z,1.25
2022-10-10T01:45:35.129Z,1.50
2022-10-10T01:48:04.941Z,1.58
2022-10-10T01:50:37.986Z,1.80
2022-10-10T01:53:12.171Z,1.60
2022-10-10T01:55:54.874Z,1.73
2022-10-10T01:58:52.745Z,2.60
2022-10-10T02:01:53.631Z,1.85
2022-10-10T02:04:30.976Z,1.73
2022-10-10T02:07:03.337Z,1.73
2022-10-10T02:09:36.882Z,1.95
2022-10-10T02:12:06.334Z,1.25
2022-10-10T02:14:38.891Z,2.33
2022-10-10T02:17:11.987Z,2.08
2022-10-10T02:19:45.600Z,1.77
2022-10-10T02:22:14.985Z,1.80
2022-10-10T02:24:43.695Z,1.63
2022-10-10T02:27:46.993Z,1.55
2022-10-10T02:30:16.414Z,1.50
2022-10-10T02:32:49.633Z,1.73
2022-10-10T02:35:20.947Z,1.52
2022-10-10T02:37:49.730Z,1.43
2022-10-10T02:40:23.302Z,1.50
2022-10-10T02:42:53.630Z,1.13
2022-10-10T02:45:22.906Z,1.25
2022-10-10T02:47:52.675Z,1.92
2022-10-10T02:50:21.478Z,1.58
2022-10-10T02:52:49.782Z,1.40
2022-10-10T02:55:18.149Z,1.40
2022-10-10T02:57:46.222Z,1.40
2022-10-10T03:00:15.290Z,2.15
2022-10-10T03:02:43.337Z,1.77
2022-10-10T03:05:12.997Z,1.30
2022-10-10T03:07:41.166Z,1.73
2022-10-10T03:10:10.514Z,1.70
2022-10-10T03:12:38.626Z,1.90
2022-10-10T03:15:11.416Z,1.98
2022-10-10T03:17:40.135Z,1.98
2022-10-10T03:20:09.469Z,1.80
2022-10-10T03:22:38.977Z,1.90
2022-10-10T03:25:07.879Z,2.30
2022-10-10T03:27:35.967Z,2.30
2022-10-10T03:30:04.185Z,2.30
2022-10-10T03:32:32.362Z,1.98
2022-10-10T03:35:00.446Z,2.10
2022-10-10T03:37:28.471Z,1.73
2022-10-10T03:39:57.878Z,1.90
2022-10-10T03:42:25.973Z,2.10
2022-10-10T03:44:54.014Z,2.17
2022-10-10T03:47:22.043Z,1.95
2022-10-10T03:49:50.107Z,2.20
2022-10-10T03:52:18.118Z,1.85
2022-10-10T03:54:46.187Z,2.05
2022-10-10T03:57:15.736Z,1.92
2022-10-10T03:59:43.814Z,2.47
2022-10-10T04:02:11.869Z,2.55
2022-10-10T04:04:39.914Z,1.83
2022-10-10T04:07:08.110Z,1.98
2022-10-10T04:09:36.125Z,2.28
2022-10-10T04:12:04.216Z,2.45
2022-10-10T04:14:33.655Z,2.10
2022-10-10T04:17:03.433Z,2.83
2022-10-10T04:19:31.607Z,2.08
2022-10-10T04:21:59.715Z,2.15
2022-10-10T04:24:28.011Z,2.30
2022-10-10T04:26:56.134Z,1.90
2022-10-10T04:29:24.380Z,2.30
2022-10-10T04:31:53.798Z,2.45
2022-10-10T04:34:21.926Z,1.70
2022-10-10T04:36:49.983Z,2.00
2022-10-10T04:39:18.035Z,2.28
2022-10-10T04:41:49.942Z,2.42
2022-10-10T04:46:46.243Z,1.90
2022-10-10T04:49:15.658Z,2.08
2022-10-10T04:51:43.735Z,2.05
2022-10-10T04:54:11.834Z,1.83
2022-10-10T04:56:41.151Z,1.83
2022-10-10T04:59:09.227Z,1.73
2022-10-10T05:01:37.428Z,1.80
2022-10-10T05:04:05.695Z,1.98
2022-10-10T05:06:35.463Z,1.85
2022-10-10T05:09:03.775Z,2.30
2022-10-10T05:11:31.840Z,2.55
2022-10-10T05:13:59.897Z,2.67
2022-10-10T05:16:28.003Z,2.08
2022-10-10T05:18:57.259Z,2.33
2022-10-10T05:21:25.375Z,2.10
2022-10-10T05:23:54.919Z,2.30
2022-10-10T05:26:23.139Z,2.22
2022-10-10T05:28:51.392Z,2.40
2022-10-10T05:31:19.426Z,2.15
2022-10-10T05:33:47.516Z,2.45
2022-10-10T05:36:15.844Z,2.22
2022-10-10T05:38:44.479Z,2.85
2022-10-10T05:41:13.914Z,2.35
2022-10-10T05:43:41.955Z,2.90
2022-10-10T05:46:10.119Z,2.72
2022-10-10T05:48:38.174Z,2.25
2022-10-10T05:51:08.140Z,2.10
2022-10-10T05:53:36.223Z,1.77
2022-10-10T05:56:04.286Z,2.50
2022-10-10T05:58:33.699Z,2.05
2022-10-10T06:01:05.750Z,2.78
2022-10-10T06:06:02.169Z,2.30
2022-10-10T06:08:31.366Z,2.90
2022-10-10T06:11:03.995Z,2.40
2022-10-10T06:13:33.708Z,2.70
2022-10-10T06:16:01.787Z,2.63
2022-10-10T06:18:29.864Z,2.35
2022-10-10T06:21:02.964Z,2.95
2022-10-10T06:23:31.040Z,2.60
2022-10-10T06:25:59.211Z,2.95
2022-10-10T06:28:27.585Z,2.72
2022-10-10T06:31:01.373Z,2.28
2022-10-10T06:33:29.718Z,2.75
2022-10-10T06:35:57.827Z,2.80
2022-10-10T06:38:27.576Z,16.67
2022-10-10T06:40:59.738Z,13.23
2022-10-10T06:43:28.542Z,32.80
2022-10-10T06:45:58.526Z,19.98
2022-10-10T06:48:27.082Z,8.25
2022-10-10T06:50:59.854Z,4.68
2022-10-10T06:53:28.700Z,3.65
2022-10-10T06:55:57.561Z,3.78
2022-10-10T06:58:27.295Z,3.30
2022-10-10T07:00:58.459Z,3.88
2022-10-10T07:03:27.108Z,3.63
2022-10-10T07:05:57.097Z,3.88
2022-10-10T07:08:26.019Z,4.78
2022-10-10T07:10:54.105Z,3.72
2022-10-10T07:13:22.591Z,3.47
2022-10-10T07:15:50.766Z,3.08
2022-10-10T07:18:21.193Z,3.05
2022-10-10T07:20:49.615Z,3.80
2022-10-10T07:23:17.945Z,3.13
2022-10-10T07:25:45.999Z,3.35
2022-10-10T07:28:14.133Z,2.80
2022-10-10T07:30:43.838Z,3.22
2022-10-10T07:33:12.423Z,2.47
2022-10-10T07:35:41.871Z,2.90
2022-10-10T07:38:12.055Z,2.65
2022-10-10T07:40:40.950Z,2.53
2022-10-10T07:43:09.018Z,2.55
2022-10-10T07:45:37.852Z,2.90
2022-10-10T07:48:07.382Z,2.13
2022-10-10T07:50:35.659Z,2.53
2022-10-10T07:53:06.162Z,3.05
2022-10-10T07:55:34.786Z,2.40
2022-10-10T07:58:03.781Z,3.38
2022-10-10T08:00:31.886Z,12.77
2022-10-10T08:02:59.915Z,12.52
2022-10-10T08:05:28.008Z,3.30
2022-10-10T08:07:56.044Z,4.68
2022-10-10T08:10:25.830Z,3.75
2022-10-10T08:12:53.838Z,3.50
2022-10-10T08:15:21.887Z,4.22
2022-10-10T08:17:50.099Z,3.30
2022-10-10T08:20:18.582Z,5.65
2022-10-10T08:22:46.773Z,6.50
2022-10-10T08:25:15.016Z,4.30
2022-10-10T08:27:44.474Z,4.82
2022-10-10T08:30:13.376Z,6.30
2022-10-10T08:32:41.399Z,4.93
2022-10-10T08:35:09.727Z,3.75
2022-10-10T08:37:37.764Z,3.83
2022-10-10T08:40:06.992Z,2.20
2022-10-10T08:42:46.909Z,2.70
2022-10-10T08:45:21.115Z,2.58
2022-10-10T08:47:54.947Z,2.70
2022-10-10T08:50:27.943Z,3.35
2022-10-10T08:52:59.214Z,2.75
2022-10-10T08:55:33.114Z,3.80
2022-10-10T08:58:05.918Z,3.45
2022-10-10T09:00:42.927Z,3.80
2022-10-10T09:03:21.314Z,3.40
2022-10-10T09:06:02.167Z,2.70
2022-10-10T09:08:40.429Z,3.03
2022-10-10T09:11:19.863Z,2.75
2022-10-10T09:13:54.930Z,3.40
2022-10-10T09:16:34.677Z,3.60
2022-10-10T09:19:18.177Z,5.35
2022-10-10T09:21:47.179Z,3.45
2022-10-10T09:24:21.354Z,3.75
2022-10-10T09:26:52.672Z,2.50
2022-10-10T09:29:31.631Z,3.60
2022-10-10T09:32:06.635Z,4.07
2022-10-10T09:34:39.958Z,3.50
2022-10-10T09:37:24.273Z,3.50
2022-10-10T09:40:02.167Z,4.30
2022-10-10T09:42:35.748Z,4.70
2022-10-10T09:45:04.918Z,3.88
2022-10-10T09:47:34.899Z,4.13
2022-10-10T09:52:33.376Z,3.58
2022-10-10T09:55:03.410Z,4.00
2022-10-10T09:57:37.751Z,4.07
2022-10-10T10:00:28.103Z,3.90
2022-10-10T10:03:14.396Z,4.85
2022-10-10T10:05:45.267Z,4.10
2022-10-10T10:08:28.050Z,3.83
2022-10-10T10:11:00.041Z,4.55
2022-10-10T10:13:31.695Z,4.47
2022-10-10T10:16:06.623Z,4.53
2022-10-10T10:18:41.680Z,4.40
2022-10-10T10:21:17.675Z,4.07
2022-10-10T10:23:52.653Z,4.18
2022-10-10T10:26:23.987Z,4.63
2022-10-10T10:28:53.596Z,4.05
2022-10-10T10:31:48.188Z,4.13
2022-10-10T10:34:42.856Z,4.13
2022-10-10T10:37:21.273Z,4.57
2022-10-10T10:40:12.455Z,5.22
2022-10-10T10:42:55.342Z,3.67
2022-10-10T10:45:31.991Z,4.38
2022-10-10T10:48:09.063Z,4.90
2022-10-10T10:50:47.157Z,4.90
2022-10-10T10:53:26.426Z,5.10
2022-10-10T10:56:06.276Z,5.35
2022-10-10T10:59:16.097Z,6.35
2022-10-10T11:01:55.792Z,4.68
2022-10-10T11:05:19.393Z,4.63
2022-10-10T11:07:37.719Z,5.15
2022-10-10T11:10:17.893Z,5.18
2022-10-10T11:12:56.124Z,5.28
2022-10-10T11:15:54.107Z,5.75
2022-10-10T11:18:20.519Z,4.50
2022-10-10T11:20:53.791Z,4.32
2022-10-10T11:23:26.196Z,4.45
2022-10-10T11:25:58.207Z,5.35
2022-10-10T11:28:31.380Z,4.90
2022-10-10T11:31:03.603Z,5.63
2022-10-10T11:33:35.278Z,6.15
2022-10-10T11:36:08.048Z,5.30
2022-10-10T11:38:44.642Z,5.05
2022-10-10T11:41:18.242Z,5.43
2022-10-10T11:43:50.374Z,4.70
2022-10-10T11:46:27.519Z,4.55
2022-10-10T11:49:02.427Z,4.82
2022-10-10T11:51:41.372Z,5.00
2022-10-10T11:54:21.818Z,4.68
2022-10-10T11:56:52.052Z,5.40
2022-10-10T11:59:26.715Z,4.72
2022-10-10T12:04:34.762Z,4.68
2022-10-10T12:07:07.640Z,5.38
2022-10-10T12:09:42.997Z,4.68
2022-10-10T12:12:16.241Z,4.22
2022-10-10T12:14:53.984Z,4.55
2022-10-10T12:17:25.617Z,4.75
2022-10-10T12:19:54.245Z,4.88
2022-10-10T12:22:25.180Z,4.60
2022-10-10T12:25:24.588Z,3.88
2022-10-10T12:28:23.510Z,4.32
2022-10-10T12:31:20.415Z,4.00
2022-10-10T12:34:14.891Z,4.10
2022-10-10T12:36:58.532Z,4.18
2022-10-10T12:39:37.013Z,4.28
2022-10-10T12:42:28.732Z,3.78
2022-10-10T12:44:56.799Z,3.95
2022-10-10T12:48:04.026Z,3.75
2022-10-10T12:50:33.871Z,3.80
2022-10-10T12:53:04.163Z,3.95
2022-10-10T12:55:40.362Z,3.15
2022-10-10T12:58:26.197Z,3.40
2022-10-10T13:00:56.370Z,3.85
2022-10-10T13:03:30.289Z,3.17
2022-10-10T13:06:04.000Z,3.17
2022-10-10T13:08:33.135Z,3.42
2022-10-10T13:11:07.014Z,2.70
2022-10-10T13:13:36.906Z,2.92
2022-10-10T13:16:10.607Z,2.67
2022-10-10T13:18:40.656Z,3.10
2022-10-10T13:21:10.548Z,3.45
2022-10-10T13:23:43.065Z,3.20
2022-10-10T13:26:23.075Z,3.17
2022-10-10T13:28:54.383Z,2.78
2022-10-10T13:31:22.823Z,2.22
2022-10-10T13:33:50.896Z,2.67
2022-10-10T13:36:23.134Z,3.28
2022-10-10T13:38:52.027Z,2.40
2022-10-10T13:41:20.836Z,2.67
2022-10-10T13:43:49.066Z,2.67
2022-10-10T13:46:24.334Z,3.28
2022-10-10T13:48:52.390Z,2.88
2022-10-10T13:51:20.614Z,3.28
2022-10-10T13:53:53.155Z,3.50
2022-10-10T13:56:27.734Z,2.83
2022-10-10T13:58:58.239Z,2.90
2022-10-10T14:01:34.746Z,3.33
2022-10-10T14:04:09.011Z,2.85
2022-10-10T14:06:37.438Z,3.83
2022-10-10T14:09:12.890Z,3.22
2022-10-10T14:11:43.455Z,3.13
2022-10-10T14:14:24.596Z,3.10
2022-10-10T14:17:01.511Z,2.53
2022-10-10T14:19:30.331Z,2.80
2022-10-10T14:21:58.571Z,2.90
2022-10-10T14:24:27.106Z,2.88
2022-10-10T14:26:55.139Z,2.50
2022-10-10T14:29:24.240Z,3.22
2022-10-10T14:31:52.391Z,2.58
2022-10-10T14:34:21.813Z,2.70
2022-10-10T14:36:51.146Z,2.88
2022-10-10T14:39:20.511Z,2.55
2022-10-10T14:41:48.556Z,2.35
2022-10-10T14:44:16.595Z,2.60
2022-10-10T14:46:44.726Z,2.35
2022-10-10T14:49:19.706Z,2.80
2022-10-10T14:51:49.459Z,3.17
2022-10-10T14:54:17.495Z,3.45
2022-10-10T14:57:08.680Z,3.28
2022-10-10T14:59:47.351Z,3.08
2022-10-10T15:02:18.737Z,3.28
2022-10-10T15:04:46.782Z,3.08
2022-10-10T15:07:16.592Z,2.85
2022-10-10T15:10:17.440Z,2.50
2022-10-10T15:12:33.701Z,3.00
2022-10-10T15:15:01.726Z,2.53
2022-10-10T15:17:31.058Z,2.58
2022-10-10T15:19:59.126Z,2.65
2022-10-10T15:22:30.095Z,2.70
2022-10-10T15:24:58.359Z,3.17
2022-10-10T15:27:28.010Z,2.63
2022-10-10T15:29:56.458Z,2.97
2022-10-10T15:32:24.539Z,3.15
2022-10-10T15:34:53.447Z,2.97
2022-10-10T15:37:21.540Z,2.80
2022-10-10T15:39:50.933Z,2.50
2022-10-10T15:42:22.956Z,2.72
2022-10-10T15:44:52.145Z,2.88
2022-10-10T15:47:21.240Z,2.78
2022-10-10T15:49:49.885Z,3.08
2022-10-10T15:52:18.432Z,2.58
2022-10-10T15:54:50.753Z,3.00
2022-10-10T15:57:19.250Z,2.95
2022-10-10T15:59:47.907Z,2.80
2022-10-10T16:02:16.622Z,2.72
2022-10-10T16:04:45.105Z,2.75
2022-10-10T16:07:28.310Z,2.42
2022-10-10T16:10:01.178Z,2.83
2022-10-10T16:14:57.147Z,2.70
2022-10-10T16:17:25.216Z,2.78
2022-10-10T16:19:53.270Z,3.00
2022-10-10T16:22:21.447Z,3.00
2022-10-10T16:25:10.225Z,2.90
2022-10-10T16:27:39.706Z,3.10
2022-10-10T16:30:09.040Z,3.30
2022-10-10T16:32:42.124Z,3.63
2022-10-10T16:35:11.407Z,3.40
2022-10-10T16:37:40.025Z,3.60
2022-10-10T16:40:09.047Z,4.43
2022-10-10T16:42:38.531Z,2.85
2022-10-10T16:45:07.618Z,3.10
2022-10-10T16:47:36.069Z,3.17
2022-10-10T16:50:05.082Z,3.50
2022-10-10T16:52:37.841Z,3.13
2022-10-10T16:55:07.950Z,3.33
2022-10-10T16:57:36.381Z,3.15
2022-10-10T17:00:07.570Z,3.08
2022-10-10T17:02:38.603Z,2.90
2022-10-10T17:05:07.702Z,3.27
2022-10-10T17:07:35.951Z,2.85
2022-10-10T17:10:04.068Z,2.72
2022-10-10T17:12:32.098Z,3.58
2022-10-10T17:15:00.138Z,3.15
2022-10-10T17:17:29.591Z,3.20
2022-10-10T17:19:57.904Z,3.22
2022-10-10T17:22:25.910Z,3.88
2022-10-10T17:24:53.957Z,3.20
2022-10-10T17:27:22.054Z,2.95
2022-10-10T17:29:52.879Z,3.50
2022-10-10T17:32:21.072Z,3.20
2022-10-10T17:34:50.702Z,3.60
2022-10-10T17:37:18.759Z,4.68
2022-10-10T17:39:46.868Z,3.75
2022-10-10T17:42:14.977Z,3.75
2022-10-10T17:44:49.557Z,3.58
2022-10-10T17:47:18.421Z,1.63
2022-10-10T17:49:47.027Z,2.80
2022-10-10T17:52:20.367Z,2.90
2022-10-10T17:54:49.231Z,3.15
2022-10-10T17:57:17.393Z,4.13
2022-10-10T17:59:45.495Z,3.97
2022-10-10T18:02:16.685Z,4.18
2022-10-10T18:04:44.986Z,4.78
2022-10-10T18:07:13.682Z,4.10
2022-10-10T18:09:43.363Z,4.20
2022-10-10T18:12:11.391Z,3.97
2022-10-10T18:14:39.469Z,4.28
2022-10-10T18:17:07.669Z,4.07
2022-10-10T18:19:35.722Z,4.40
2022-10-10T18:22:03.955Z,4.75
2022-10-10T18:24:31.979Z,4.38
2022-10-10T18:27:01.399Z,7.38
2022-10-10T18:29:29.444Z,6.70
2022-10-10T18:31:57.491Z,9.35
2022-10-10T18:34:25.527Z,9.35
2022-10-10T18:36:53.571Z,8.45
2022-10-10T18:39:21.582Z,8.05
2022-10-10T18:41:49.695Z,7.05
2022-10-10T18:44:20.159Z,6.10
2022-10-10T18:46:50.058Z,5.35
2022-10-10T18:49:18.114Z,3.65
2022-10-10T18:51:46.159Z,3.80
2022-10-10T18:54:16.554Z,2.90
2022-10-10T18:56:46.013Z,3.00
2022-10-10T18:59:16.942Z,4.03
2022-10-10T19:01:46.792Z,3.38
2022-10-10T19:04:16.044Z,3.25
2022-10-10T19:06:44.711Z,2.90
2022-10-10T19:09:14.946Z,3.03
2022-10-10T19:11:44.970Z,3.40
2022-10-10T19:14:15.838Z,3.08
2022-10-10T19:16:46.676Z,2.95
2022-10-10T19:19:16.997Z,2.63
2022-10-10T19:21:46.827Z,3.25
2022-10-10T19:24:19.460Z,3.25
2022-10-10T19:26:51.981Z,3.20
2022-10-10T19:29:20.890Z,4.30
2022-10-10T19:31:50.374Z,3.22
2022-10-10T19:34:18.446Z,3.70
2022-10-10T19:36:46.782Z,4.50
2022-10-10T19:39:15.036Z,5.03
2022-10-10T19:41:43.102Z,4.30
2022-10-10T19:44:11.184Z,4.22
2022-10-10T19:46:39.503Z,3.17
2022-10-10T19:49:08.930Z,4.50
2022-10-10T19:51:36.989Z,8.27
2022-10-10T19:54:05.186Z,6.28
2022-10-10T19:56:33.252Z,4.63
2022-10-10T19:59:04.411Z,3.75
2022-10-10T20:01:32.735Z,3.80
2022-10-10T20:04:01.092Z,3.90
2022-10-10T20:06:30.706Z,3.45
2022-10-10T20:08:58.891Z,3.85
2022-10-10T20:11:27.280Z,4.00
2022-10-10T20:13:55.854Z,4.00
2022-10-10T20:16:26.323Z,3.70
2022-10-10T20:18:56.026Z,3.58
2022-10-10T20:21:29.133Z,3.78
2022-10-10T20:23:59.475Z,3.28
2022-10-10T20:26:28.012Z,3.88
2022-10-10T20:28:57.456Z,3.22
2022-10-10T20:31:27.522Z,4.32
2022-10-10T20:33:57.908Z,8.07
2022-10-10T20:36:26.523Z,7.43
2022-10-10T20:38:55.218Z,4.60
2022-10-10T20:41:26.663Z,4.15
2022-10-10T20:43:59.085Z,3.80
2022-10-10T20:46:29.460Z,3.60
2022-10-10T20:48:58.533Z,4.40
2022-10-10T20:51:28.508Z,3.47
2022-10-10T20:53:58.688Z,3.55
2022-10-10T20:56:29.207Z,3.55
2022-10-10T20:58:57.386Z,4.00
2022-10-10T21:01:27.436Z,4.13
2022-10-10T21:03:55.876Z,4.45
2022-10-10T21:06:25.686Z,2.97
2022-10-10T21:08:54.291Z,3.40
2022-10-10T21:11:24.148Z,4.03
2022-10-10T21:13:56.449Z,3.55
2022-10-10T21:16:26.195Z,3.95
2022-10-10T21:18:57.933Z,4.28
2022-10-10T21:21:27.505Z,4.03
2022-10-10T21:23:56.746Z,4.75
2022-10-10T21:26:26.694Z,11.68
2022-10-10T21:28:57.024Z,15.20
2022-10-10T21:31:27.041Z,12.90
2022-10-10T21:33:55.422Z,7.05
2022-10-10T21:36:24.987Z,6.47
2022-10-10T21:38:53.274Z,5.65
2022-10-10T21:41:22.127Z,5.40
2022-10-10T21:43:52.187Z,5.20
2022-10-10T21:46:23.451Z,5.20
2022-10-10T21:48:52.379Z,4.85
2022-10-10T21:51:20.938Z,3.80
2022-10-10T21:53:49.558Z,4.38
2022-10-10T21:56:17.643Z,3.88
2022-10-10T21:58:46.320Z,5.10
2022-10-10T22:01:17.222Z,5.00
2022-10-10T22:03:48.411Z,4.50
2022-10-10T22:06:19.282Z,4.72
2022-10-10T22:08:48.067Z,4.88
2022-10-10T22:11:17.976Z,3.97
2022-10-10T22:13:46.348Z,4.13
2022-10-10T22:16:14.691Z,5.75
2022-10-10T22:18:43.431Z,6.90
2022-10-10T22:21:15.135Z,5.82
2022-10-10T22:23:43.625Z,6.80
2022-10-10T22:26:13.412Z,6.18
2022-10-10T22:28:41.882Z,5.68
2022-10-10T22:31:11.208Z,5.03
2022-10-10T22:33:39.300Z,4.88
2022-10-10T22:36:08.875Z,5.65
2022-10-10T22:38:41.288Z,4.63
2022-10-10T22:41:09.927Z,4.93
2022-10-10T22:43:38.213Z,5.18
2022-10-10T22:46:07.277Z,4.85
2022-10-10T22:48:36.242Z,4.55
2022-10-10T22:51:07.382Z,5.03
2022-10-10T22:53:36.300Z,4.43
2022-10-10T22:56:06.358Z,4.03
2022-10-10T22:58:34.687Z,3.70
2022-10-10T23:01:06.741Z,3.63
2022-10-10T23:03:35.058Z,3.67
2022-10-10T23:06:03.639Z,3.63
2022-10-10T23:08:32.289Z,3.15
2022-10-10T23:11:00.672Z,2.60
2022-10-10T23:13:30.223Z,3.35
2022-10-10T23:15:58.420Z,2.97
2022-10-10T23:18:26.535Z,2.05
2022-10-10T23:20:54.704Z,1.75
2022-10-10T23:23:22.798Z,1.58
2022-10-10T23:25:50.839Z,1.27
2022-10-10T23:28:19.552Z,1.10
2022-10-10T23:30:49.751Z,0.93
2022-10-10T23:33:18.357Z,1.67
2022-10-10T23:35:56.689Z,1.00
2022-10-10T23:38:24.797Z,0.93
2022-10-10T23:40:52.872Z,1.00
2022-10-10T23:43:21.051Z,1.05
2022-10-10T23:45:50.946Z,0.88
2022-10-10T23:48:19.508Z,1.35
2022-10-10T23:50:47.558Z,1.10
2022-10-10T23:53:15.804Z,1.35
2022-10-10T23:55:43.874Z,1.95
2022-10-10T23:58:11.924Z,1.35
